Aérodrome :
LOGIN :

S'inscrire | Disclaimer

   EN    FR    IT 

 










Légende :    VFR   VFR Marginal   IFR   IFR Intensif   IFR Très Intensif
Visi : 
Plafond : 
>= 8 km
>= 3000ft
5 à 8 km
1000 à 3000 ft
1500m à 5 km
500 à 1000 ft
800 à 1500m
200 à 500 ft
< 800m
< 200 ft
Symboles :   Orages  Brouillard  Fortes neiges  Fortes précipitations  Vent > 20 kt
SIGMETs :   Divers  Orages  Givrage  Turbulence  Onde Orograph.  Cendres Volcan.







- Altitude de l'aérodrome : 357 ft
- Code IATA : TUF
- Voir les cartes d'approche


LFOT - Tours

DERNIER METAR :
  • 191030Z AUTO 19010KT 170V240 9999 BKN024 19/13 Q1009 NOSIG

METARs EXPIRÉS :
  • 191000Z AUTO 18011KT 160V220 9999 BKN025 19/12 Q1009 NOSIG
  • 190930Z AUTO 19011KT 9999 FEW020 19/13 Q1009 NOSIG
  • 190900Z AUTO 19010KT 160V220 9999 BKN014 18/14 Q1009 BECMG BKN030
  • 190830Z AUTO 17007KT 9999 BKN011 17/14 Q1009 BECMG BKN030
  • 190800Z AUTO 18006KT 9999 OVC008 16/14 Q1009 BECMG BKN030

TAF TAF LFOT
Valide du 19 à 06h jusqu'au 20 à 06h UTC


190500Z 1906/2006 14005KT 9999 BKN030
PROB30
TEMPO 1906/1908 -RA BKN008
BECMG 1908/1910 20010KT
BECMG 1921/1923 20015G25KT -RA BKN040
TEMPO 2001/2003 20018G30KT 4000 RA BKN012
BECMG 2003/2005 20010KT CAVOK
Pas de NOTAMs connus pour ce terrain.



MET'MAP, la Météo Aéronautique d'un coup d'oeil ! - Copyright ORBIFLY Décembre 2007 - Disclaimer

ORBIFLY MET'MAP TEAM :

Programmation & Développement : Alexandra Zaïnal
Conception & Développement : Baudouin d'Aumeries
Co-Programmation & Développement : Marc-Olivier Méhu
Soutien technique & logistique : Manuel Goepfert

Contact : metmap@orbifly.com




SOURCES & CREDITS :

   NOAA